• Join FlightAware (Why Join?)
  • Login
  • US Flag 
02:15PM EST


 

Airport Tracker/Info


-or-


 

Live Flight TrackerFlight Track Log ✈ EJA929 ✈ 31-Oct-2013 ✈ KBUF - KHPN

Flight Track Log - Related Links

Times and Time Zones

All times are in EDT time to prevent confusion due to time zone crossing. See the EJA929 flight status page for this flight to view local times or setup timezone preferences in your user account.

Time Position Orientation Groundspeed Altitude Reporting Facility
EDT Latitude Longitude Course Direction KTS MPH feet Rate Location/Type
04:39PM 42.9000 -78.7667 216° Southwest 189 217 5,900  Level Buffalo TRACON
04:40PM 42.8506 -78.7244 148° Southeast 254 292 9,100 2,520 Climbing Cleveland Center
04:41PM 42.8436 -78.6147 95° East 337 388 10,600 2,280 Climbing Cleveland Center
04:42PM 42.8333 -78.4467 95° East 370 426 13,900 2,700 Climbing Cleveland Center
04:43PM 42.8236 -78.3050 95° East 378 435 16,200 2,160 Climbing Cleveland Center
04:44PM 42.7944 -78.1622 106° East 391 450 18,400 1,680 Climbing Cleveland Center
04:45PM 42.7986 -78.0019 88° East 439 505 19,700 1,440 Climbing Cleveland Center
04:46PM 42.8153 -77.8361 82° East 438 504 21,400 1,620 Climbing Cleveland Center
04:47PM 42.7947 -77.6731 100° East 439 505 23,100 1,680 Climbing Cleveland Center
04:48PM 42.7542 -77.5097 109° East 444 511 24,900 1,620 Climbing Cleveland Center
04:49PM 42.7136 -77.3408 108° East 458 527 26,500 960 Climbing Cleveland Center
04:50PM 42.6703 -77.1642 108° East 479 551 27,000 240 Climbing Cleveland Center
04:51PM 42.6139 -76.9328 108° East 527 606 27,000  Level Cleveland Center
04:52PM 42.5722 -76.7739 110° East 546 628 27,000  Level Boston Center
04:53PM 42.5478 -76.5744 99° East 552 635 27,000 -600 Level Boston Center
04:54PM 42.5875 -76.3764 75° East 548 631 25,800 -1,440 Descending Boston Center
04:55PM 42.6314 -76.1800 73° East 549 632 24,100 -1,560 Descending Boston Center
04:56PM 42.6311 -76.0025 90° East 494 568 22,600 -1,500 Descending Boston Center
04:57PM 42.5717 -75.8489 118° Southeast 471 542 21,100 -1,680 Descending Boston Center
04:58PM 42.4950 -75.6722 120° Southeast 460 529 19,300 -1,560 Descending Boston Center
04:59PM 42.4361 -75.5386 121° Southeast 427 491 17,900 -720 Descending Boston Center
05:00PM 42.3867 -75.4278 121° Southeast 362 417 17,900  Level Boston Center
05:01PM 42.3378 -75.3172 121° Southeast 349 402 17,900  Level Boston Center
05:02PM 42.2906 -75.2103 121° Southeast 341 392 17,900  Level Boston Center
05:03PM 42.2403 -75.0950 120° Southeast 352 405 17,900  Level Boston Center
05:04PM 42.1883 -74.9811 122° Southeast 356 410 17,900  Level Boston Center
05:05PM 42.1300 -74.8400 119° Southeast 361 415 17,900  Level Boston Center
05:06PM 42.0803 -74.7222 120° Southeast 364 419 17,900 -240 Level Boston Center
05:07PM 42.0272 -74.5967 120° Southeast 368 423 17,500 -1,020 Descending Boston Center
05:09PM 41.9792 -74.4822 119° Southeast 354 407 15,900 -1,740 Descending Boston Center
05:10PM 41.9308 -74.3733 121° Southeast 340 391 13,900 -2,040 Descending Boston Center
05:11PM 41.8861 -74.2669 119° Southeast 327 376 11,900 -1,440 Descending Boston Center
05:12PM 41.8394 -74.1631 121° Southeast 302 348 11,000 -480 Descending Boston Center
05:13PM 41.8353 -74.0456 93° East 319 367 11,000 -300 Level Boston Center
05:14PM 41.8369 -73.9400 89° East 285 328 10,400 -780 Descending Boston Center
05:15PM 41.8389 -73.8397 88° East 271 312 9,400 -720 Descending Boston Center
05:16PM 41.8414 -73.7319 88° East 269 310 9,000 -360 Descending Boston Center
05:17PM 41.8075 -73.6683 126° Southeast 235 270 8,700 -720 Descending Boston Center
05:18PM 41.7578 -73.7019 207° Southwest 202 232 7,600 -1,020 Descending Boston Center
05:19PM 41.7375 -73.7633 246° West 195 224 6,700 -840 Descending Boston Center
05:20PM 41.7283 -73.8394 261° West 193 222 6,000 -360 Descending Boston Center
05:21PM 41.7197 -73.9075 260° West 188 216 6,000  Level Boston Center
05:22PM 41.7042 -73.9711 252° West 189 217 6,000  Level Boston Center
05:23PM 41.6692 -73.9125 129° Southeast 249 287 6,000  Level Boston Center
05:24PM 41.6578 -73.8094 98° East 261 300 6,000  Level Boston Center
05:25PM 41.6411 -73.7161 103° East 257 296 6,000  Level Boston Center
05:26PM 41.6000 -73.7167 181° South 206 237 6,100  Climbing New York TRACON
05:27PM 41.5667 -73.7500 217° Southwest 153 176 6,100 -60 Level New York TRACON
05:28PM 41.5167 -73.7667 194° South 165 190 6,000 -600 Descending New York TRACON
05:29PM 41.4833 -73.7833 201° Southwest 163 188 5,000 -1,080 Descending New York TRACON
05:30PM 41.4500 -73.8167 217° Southwest 145 167 3,900 -960 Descending New York TRACON
05:31PM 41.4167 -73.8333 201° Southwest 137 158 3,100 -420 Descending New York TRACON
05:32PM 41.3667 -73.8500 194° South 137 158 3,100  Level New York TRACON
05:33PM 41.3333 -73.8667 201° Southwest 138 159 3,100  Level New York TRACON
05:34PM 41.3000 -73.8833 201° Southwest 136 157 3,100  Level New York TRACON
05:35PM 41.2667 -73.8500 143° Southeast 163 188 3,100  Level New York TRACON
05:36PM 41.2333 -73.8333 159° South 148 170 3,100 -60 Level New York TRACON
05:37PM 41.1833 -73.8000 153° Southeast 144 166 3,000 -420 Descending New York TRACON
05:38PM 41.1500 -73.7833 159° South 140 161 2,300 -720 Descending New York TRACON
05:38PM 41.1333 -73.7500 124° Southeast 121 139 1,700 -660 Descending New York TRACON
05:39PM 41.1000 -73.7333 159° South 115 132 1,100 -600 Descending New York TRACON